sensor_id;sensor_type;location;lat;lon;timestamp;pressure;altitude;pressure_sealevel;temperature;humidity
66381;BME280;53177;52.648;1.214;2023-09-19T00:01:34;99971.94;;;11.86;96.61
66381;BME280;53177;52.648;1.214;2023-09-19T00:04:00;99985.13;;;11.88;96.81
66381;BME280;53177;52.648;1.214;2023-09-19T00:06:29;99980.75;;;11.87;97.21
66381;BME280;53177;52.648;1.214;2023-09-19T00:08:57;99983.28;;;11.90;97.53
66381;BME280;53177;52.648;1.214;2023-09-19T00:11:24;99972.63;;;11.91;96.63
66381;BME280;53177;52.648;1.214;2023-09-19T00:13:51;99973.63;;;11.89;98.59
66381;BME280;53177;52.648;1.214;2023-09-19T00:16:16;99964.66;;;11.91;97.53
66381;BME280;53177;52.648;1.214;2023-09-19T00:18:44;99959.19;;;11.96;96.80
66381;BME280;53177;52.648;1.214;2023-09-19T00:21:09;99969.19;;;11.89;97.35
66381;BME280;53177;52.648;1.214;2023-09-19T00:23:35;99973.66;;;11.87;97.12
66381;BME280;53177;52.648;1.214;2023-09-19T00:26:01;99970.88;;;11.90;96.44
66381;BME280;53177;52.648;1.214;2023-09-19T00:28:27;99971.09;;;11.86;97.20
66381;BME280;53177;52.648;1.214;2023-09-19T00:30:52;99979.22;;;11.81;97.80
66381;BME280;53177;52.648;1.214;2023-09-19T00:33:20;99980.31;;;11.76;98.05
66381;BME280;53177;52.648;1.214;2023-09-19T00:35:52;99982.84;;;11.79;97.61
66381;BME280;53177;52.648;1.214;2023-09-19T00:38:19;99980.53;;;11.69;98.70
66381;BME280;53177;52.648;1.214;2023-09-19T00:40:50;99985.88;;;11.68;99.08
66381;BME280;53177;52.648;1.214;2023-09-19T00:43:19;99980.53;;;11.69;98.59
66381;BME280;53177;52.648;1.214;2023-09-19T00:45:47;99976.38;;;11.62;99.86
66381;BME280;53177;52.648;1.214;2023-09-19T00:48:16;99975.47;;;11.63;99.54
66381;BME280;53177;52.648;1.214;2023-09-19T00:50:43;99973.00;;;11.59;100.00
66381;BME280;53177;52.648;1.214;2023-09-19T00:53:09;99989.00;;;11.56;100.00
66381;BME280;53177;52.648;1.214;2023-09-19T00:55:39;99989.78;;;11.58;100.00
66381;BME280;53177;52.648;1.214;2023-09-19T00:58:07;99997.81;;;11.56;100.00
66381;BME280;53177;52.648;1.214;2023-09-19T01:00:33;100010.13;;;11.57;99.88
66381;BME280;53177;52.648;1.214;2023-09-19T01:03:02;100000.50;;;11.55;100.00
66381;BME280;53177;52.648;1.214;2023-09-19T01:05:28;99995.22;;;11.55;100.00
66381;BME280;53177;52.648;1.214;2023-09-19T01:07:54;99988.56;;;11.45;100.00
66381;BME280;53177;52.648;1.214;2023-09-19T01:10:21;99989.50;;;11.42;100.00
66381;BME280;53177;52.648;1.214;2023-09-19T01:32:06;100001.31;;;11.34;100.00
66381;BME280;53177;52.648;1.214;2023-09-19T01:37:16;99989.00;;;11.33;100.00
66381;BME280;53177;52.648;1.214;2023-09-19T01:39:45;99977.84;;;11.24;100.00
66381;BME280;53177;52.648;1.214;2023-09-19T01:42:37;99974.50;;;11.19;100.00
66381;BME280;53177;52.648;1.214;2023-09-19T01:45:13;99965.63;;;11.20;100.00
66381;BME280;53177;52.648;1.214;2023-09-19T01:47:49;99964.69;;;11.23;100.00
66381;BME280;53177;52.648;1.214;2023-09-19T01:50:39;99963.44;;;11.32;100.00
66381;BME280;53177;52.648;1.214;2023-09-19T01:53:15;99964.94;;;11.39;100.00
66381;BME280;53177;52.648;1.214;2023-09-19T01:55:48;99979.16;;;11.36;100.00
66381;BME280;53177;52.648;1.214;2023-09-19T02:01:20;99990.50;;;11.40;100.00
66381;BME280;53177;52.648;1.214;2023-09-19T02:03:47;100003.69;;;11.41;100.00
66381;BME280;53177;52.648;1.214;2023-09-19T02:06:18;100014.19;;;11.43;100.00
66381;BME280;53177;52.648;1.214;2023-09-19T02:08:45;100012.72;;;11.36;100.00
66381;BME280;53177;52.648;1.214;2023-09-19T02:11:13;100006.63;;;11.34;100.00
66381;BME280;53177;52.648;1.214;2023-09-19T02:13:39;100009.38;;;11.31;100.00
66381;BME280;53177;52.648;1.214;2023-09-19T02:16:06;100008.59;;;11.27;100.00
66381;BME280;53177;52.648;1.214;2023-09-19T02:18:32;100003.91;;;11.35;100.00
66381;BME280;53177;52.648;1.214;2023-09-19T02:21:00;99996.94;;;11.33;100.00
66381;BME280;53177;52.648;1.214;2023-09-19T02:23:26;99997.00;;;11.31;100.00
66381;BME280;53177;52.648;1.214;2023-09-19T02:25:56;99989.28;;;11.25;100.00
66381;BME280;53177;52.648;1.214;2023-09-19T02:28:28;99993.84;;;11.21;100.00
66381;BME280;53177;52.648;1.214;2023-09-19T02:30:57;99999.84;;;11.27;100.00
66381;BME280;53177;52.648;1.214;2023-09-19T02:33:23;99993.59;;;11.28;100.00
66381;BME280;53177;52.648;1.214;2023-09-19T02:35:48;100002.56;;;11.23;100.00
66381;BME280;53177;52.648;1.214;2023-09-19T02:38:14;100003.44;;;11.24;100.00
66381;BME280;53177;52.648;1.214;2023-09-19T02:40:43;99994.97;;;11.14;100.00
66381;BME280;53177;52.648;1.214;2023-09-19T02:43:09;99993.25;;;11.13;100.00
66381;BME280;53177;52.648;1.214;2023-09-19T02:45:35;99998.66;;;11.10;100.00
66381;BME280;53177;52.648;1.214;2023-09-19T02:48:00;100002.06;;;11.14;100.00
66381;BME280;53177;52.648;1.214;2023-09-19T02:50:27;100008.22;;;11.14;100.00
66381;BME280;53177;52.648;1.214;2023-09-19T02:52:52;99999.41;;;11.14;100.00
66381;BME280;53177;52.648;1.214;2023-09-19T02:55:19;100000.50;;;11.08;100.00
66381;BME280;53177;52.648;1.214;2023-09-19T02:57:54;100000.50;;;11.08;100.00
66381;BME280;53177;52.648;1.214;2023-09-19T03:00:23;99998.63;;;11.12;100.00
66381;BME280;53177;52.648;1.214;2023-09-19T03:02:53;100001.31;;;11.10;100.00
66381;BME280;53177;52.648;1.214;2023-09-19T03:05:19;100006.44;;;11.15;100.00
66381;BME280;53177;52.648;1.214;2023-09-19T03:07:46;100008.09;;;11.17;100.00
66381;BME280;53177;52.648;1.214;2023-09-19T03:10:16;100012.19;;;11.26;100.00
66381;BME280;53177;52.648;1.214;2023-09-19T03:12:43;100007.97;;;11.20;100.00
66381;BME280;53177;52.648;1.214;2023-09-19T03:15:08;100017.53;;;11.24;100.00
66381;BME280;53177;52.648;1.214;2023-09-19T03:17:34;100006.94;;;11.24;100.00
66381;BME280;53177;52.648;1.214;2023-09-19T03:19:59;100005.13;;;11.27;100.00
66381;BME280;53177;52.648;1.214;2023-09-19T03:22:26;99997.19;;;11.27;100.00
66381;BME280;53177;52.648;1.214;2023-09-19T03:24:52;100015.63;;;11.28;100.00
66381;BME280;53177;52.648;1.214;2023-09-19T03:27:18;100004.13;;;11.29;100.00
66381;BME280;53177;52.648;1.214;2023-09-19T03:29:43;100002.06;;;11.37;100.00
66381;BME280;53177;52.648;1.214;2023-09-19T03:32:09;100004.56;;;11.42;100.00
66381;BME280;53177;52.648;1.214;2023-09-19T03:34:38;100006.38;;;11.40;100.00
66381;BME280;53177;52.648;1.214;2023-09-19T03:37:08;100008.91;;;11.43;100.00
66381;BME280;53177;52.648;1.214;2023-09-19T03:39:34;100018.63;;;11.42;100.00
66381;BME280;53177;52.648;1.214;2023-09-19T03:41:59;100016.69;;;11.47;100.00
66381;BME280;53177;52.648;1.214;2023-09-19T03:44:24;100009.78;;;11.43;100.00
66381;BME280;53177;52.648;1.214;2023-09-19T03:46:50;100006.06;;;11.49;100.00
66381;BME280;53177;52.648;1.214;2023-09-19T03:49:15;99999.78;;;11.51;100.00
66381;BME280;53177;52.648;1.214;2023-09-19T03:51:41;99995.16;;;11.56;100.00
66381;BME280;53177;52.648;1.214;2023-09-19T03:54:07;100006.56;;;11.58;100.00
66381;BME280;53177;52.648;1.214;2023-09-19T03:56:32;99997.00;;;11.54;100.00
66381;BME280;53177;52.648;1.214;2023-09-19T03:58:58;99997.16;;;11.50;100.00
66381;BME280;53177;52.648;1.214;2023-09-19T04:01:23;99993.88;;;11.43;100.00
66381;BME280;53177;52.648;1.214;2023-09-19T04:03:49;99992.00;;;11.47;100.00
66381;BME280;53177;52.648;1.214;2023-09-19T04:06:17;99980.78;;;11.40;100.00
66381;BME280;53177;52.648;1.214;2023-09-19T04:08:43;99984.34;;;11.39;100.00
66381;BME280;53177;52.648;1.214;2023-09-19T04:11:09;99976.63;;;11.33;100.00
66381;BME280;53177;52.648;1.214;2023-09-19T04:13:35;99974.84;;;11.34;100.00
66381;BME280;53177;52.648;1.214;2023-09-19T04:16:01;99972.13;;;11.35;100.00
66381;BME280;53177;52.648;1.214;2023-09-19T04:18:27;99978.38;;;11.34;100.00
66381;BME280;53177;52.648;1.214;2023-09-19T04:20:53;99978.38;;;11.34;100.00
66381;BME280;53177;52.648;1.214;2023-09-19T04:23:19;99968.53;;;11.38;100.00
66381;BME280;53177;52.648;1.214;2023-09-19T04:25:48;99978.88;;;11.44;100.00
66381;BME280;53177;52.648;1.214;2023-09-19T04:28:14;99980.63;;;11.45;100.00
66381;BME280;53177;52.648;1.214;2023-09-19T04:30:40;99969.91;;;11.48;100.00
66381;BME280;53177;52.648;1.214;2023-09-19T04:33:06;99962.81;;;11.48;100.00
66381;BME280;53177;52.648;1.214;2023-09-19T04:35:32;99962.81;;;11.48;100.00
66381;BME280;53177;52.648;1.214;2023-09-19T04:37:57;99963.69;;;11.49;100.00
66381;BME280;53177;52.648;1.214;2023-09-19T04:40:23;99961.88;;;11.49;100.00
66381;BME280;53177;52.648;1.214;2023-09-19T04:42:56;99954.81;;;11.50;100.00
66381;BME280;53177;52.648;1.214;2023-09-19T04:45:25;99955.66;;;11.50;100.00
66381;BME280;53177;52.648;1.214;2023-09-19T04:47:51;99965.31;;;11.53;100.00
66381;BME280;53177;52.648;1.214;2023-09-19T04:50:17;99960.00;;;11.53;100.00
66381;BME280;53177;52.648;1.214;2023-09-19T04:52:43;99957.28;;;11.54;100.00
66381;BME280;53177;52.648;1.214;2023-09-19T04:55:13;99957.16;;;11.57;100.00
66381;BME280;53177;52.648;1.214;2023-09-19T04:57:49;99951.81;;;11.59;100.00
66381;BME280;53177;52.648;1.214;2023-09-19T05:00:17;99952.56;;;11.62;100.00
66381;BME280;53177;52.648;1.214;2023-09-19T05:02:45;99944.59;;;11.62;100.00
66381;BME280;53177;52.648;1.214;2023-09-19T05:05:10;99934.00;;;11.62;100.00
66381;BME280;53177;52.648;1.214;2023-09-19T05:07:36;99944.66;;;11.61;100.00
66381;BME280;53177;52.648;1.214;2023-09-19T05:10:03;99942.69;;;11.66;100.00
66381;BME280;53177;52.648;1.214;2023-09-19T05:12:33;99931.38;;;11.62;100.00
66381;BME280;53177;52.648;1.214;2023-09-19T05:15:08;99925.16;;;11.63;100.00
66381;BME280;53177;52.648;1.214;2023-09-19T05:17:35;99926.03;;;11.64;100.00
66381;BME280;53177;52.648;1.214;2023-09-19T05:20:04;99926.03;;;11.64;100.00
66381;BME280;53177;52.648;1.214;2023-09-19T05:22:43;99921.50;;;11.66;100.00
66381;BME280;53177;52.648;1.214;2023-09-19T05:25:13;99924.94;;;11.68;100.00
66381;BME280;53177;52.648;1.214;2023-09-19T05:27:43;99926.69;;;11.69;100.00
66381;BME280;53177;52.648;1.214;2023-09-19T05:30:11;99913.38;;;11.70;100.00
66381;BME280;53177;52.648;1.214;2023-09-19T05:32:41;99909.00;;;11.71;100.00
66381;BME280;53177;52.648;1.214;2023-09-19T05:35:08;99909.78;;;11.73;100.00
66381;BME280;53177;52.648;1.214;2023-09-19T05:37:36;99921.25;;;11.74;100.00
66381;BME280;53177;52.648;1.214;2023-09-19T05:40:03;99921.97;;;11.77;100.00
66381;BME280;53177;52.648;1.214;2023-09-19T05:42:32;99914.91;;;11.78;100.00
66381;BME280;53177;52.648;1.214;2023-09-19T05:44:58;99922.75;;;11.79;100.00
66381;BME280;53177;52.648;1.214;2023-09-19T05:47:23;99908.56;;;11.82;100.00
66381;BME280;53177;52.648;1.214;2023-09-19T05:49:50;99909.41;;;11.82;100.00
66381;BME280;53177;52.648;1.214;2023-09-19T05:52:16;99915.47;;;11.86;100.00
66381;BME280;53177;52.648;1.214;2023-09-19T05:54:43;99917.09;;;11.88;100.00
66381;BME280;53177;52.648;1.214;2023-09-19T05:57:08;99902.00;;;11.90;100.00
66381;BME280;53177;52.648;1.214;2023-09-19T05:59:33;99909.94;;;11.90;100.00
66381;BME280;53177;52.648;1.214;2023-09-19T06:01:59;99908.16;;;11.91;100.00
66381;BME280;53177;52.648;1.214;2023-09-19T06:04:25;99921.28;;;11.94;100.00
66381;BME280;53177;52.648;1.214;2023-09-19T06:06:51;99912.41;;;11.95;100.00
66381;BME280;53177;52.648;1.214;2023-09-19T06:09:16;99908.75;;;11.97;100.00
66381;BME280;53177;52.648;1.214;2023-09-19T06:11:42;99911.38;;;11.99;100.00
66381;BME280;53177;52.648;1.214;2023-09-19T06:14:08;99906.88;;;12.01;100.00
66381;BME280;53177;52.648;1.214;2023-09-19T06:16:35;99905.00;;;12.03;100.00
66381;BME280;53177;52.648;1.214;2023-09-19T06:19:03;99886.50;;;12.01;100.00
66381;BME280;53177;52.648;1.214;2023-09-19T06:21:28;99896.34;;;11.99;100.00
66381;BME280;53177;52.648;1.214;2023-09-19T06:23:54;99877.72;;;12.01;100.00
66381;BME280;53177;52.648;1.214;2023-09-19T06:26:20;99902.38;;;12.03;100.00
66381;BME280;53177;52.648;1.214;2023-09-19T06:28:45;99888.19;;;12.04;100.00
66381;BME280;53177;52.648;1.214;2023-09-19T06:31:11;99880.13;;;12.07;100.00
66381;BME280;53177;52.648;1.214;2023-09-19T06:33:37;99874.69;;;12.10;100.00
66381;BME280;53177;52.648;1.214;2023-09-19T06:36:06;99874.53;;;12.13;100.00
66381;BME280;53177;52.648;1.214;2023-09-19T06:38:32;99870.84;;;12.17;100.00
66381;BME280;53177;52.648;1.214;2023-09-19T06:41:01;99869.06;;;12.17;100.00
66381;BME280;53177;52.648;1.214;2023-09-19T06:43:29;99861.09;;;12.17;100.00
66381;BME280;53177;52.648;1.214;2023-09-19T06:45:56;99847.56;;;12.24;100.00
66381;BME280;53177;52.648;1.214;2023-09-19T06:48:22;99839.50;;;12.27;100.00
66381;BME280;53177;52.648;1.214;2023-09-19T06:50:50;99833.06;;;12.32;100.00
66381;BME280;53177;52.648;1.214;2023-09-19T06:53:16;99835.44;;;12.38;100.00
66381;BME280;53177;52.648;1.214;2023-09-19T06:55:42;99829.94;;;12.43;100.00
66381;BME280;53177;52.648;1.214;2023-09-19T06:58:09;99825.34;;;12.46;100.00
66381;BME280;53177;52.648;1.214;2023-09-19T07:00:35;99826.66;;;12.56;100.00
66381;BME280;53177;52.648;1.214;2023-09-19T07:03:04;99823.91;;;12.59;100.00
66381;BME280;53177;52.648;1.214;2023-09-19T07:05:35;99809.47;;;12.65;100.00
66381;BME280;53177;52.648;1.214;2023-09-19T07:08:05;99807.50;;;12.70;100.00
66381;BME280;53177;52.648;1.214;2023-09-19T07:10:31;99804.69;;;12.73;100.00
66381;BME280;53177;52.648;1.214;2023-09-19T07:12:57;99808.13;;;12.75;100.00
66381;BME280;53177;52.648;1.214;2023-09-19T07:15:24;99807.84;;;12.81;100.00
66381;BME280;53177;52.648;1.214;2023-09-19T07:17:51;99807.66;;;12.86;100.00
66381;BME280;53177;52.648;1.214;2023-09-19T07:20:17;99796.88;;;12.89;100.00
66381;BME280;53177;52.648;1.214;2023-09-19T07:22:44;99789.53;;;12.94;100.00
66381;BME280;53177;52.648;1.214;2023-09-19T07:25:09;99794.66;;;12.98;100.00
66381;BME280;53177;52.648;1.214;2023-09-19T07:27:34;99784.84;;;13.00;100.00
66381;BME280;53177;52.648;1.214;2023-09-19T07:30:00;99775.00;;;13.02;100.00
66381;BME280;53177;52.648;1.214;2023-09-19T07:32:25;99767.91;;;13.03;100.00
66381;BME280;53177;52.648;1.214;2023-09-19T07:34:50;99764.03;;;13.10;100.00
66381;BME280;53177;52.648;1.214;2023-09-19T07:37:16;99754.06;;;13.15;100.00
66381;BME280;53177;52.648;1.214;2023-09-19T07:39:41;99756.47;;;13.20;100.00
66381;BME280;53177;52.648;1.214;2023-09-19T07:42:07;99753.38;;;13.29;100.00
66381;BME280;53177;52.648;1.214;2023-09-19T07:44:32;99764.34;;;13.40;100.00
66381;BME280;53177;52.648;1.214;2023-09-19T07:46:59;99770.91;;;13.50;100.00
66381;BME280;53177;52.648;1.214;2023-09-19T07:49:28;99753.72;;;13.57;100.00
66381;BME280;53177;52.648;1.214;2023-09-19T07:51:53;99760.72;;;13.59;100.00
66381;BME280;53177;52.648;1.214;2023-09-19T07:54:20;99756.09;;;13.63;100.00
66381;BME280;53177;52.648;1.214;2023-09-19T07:56:46;99762.19;;;13.65;100.00
66381;BME280;53177;52.648;1.214;2023-09-19T07:59:12;99765.53;;;13.69;100.00
66381;BME280;53177;52.648;1.214;2023-09-19T08:01:39;99760.94;;;13.72;100.00
66381;BME280;53177;52.648;1.214;2023-09-19T08:04:05;99749.22;;;13.76;100.00
66381;BME280;53177;52.648;1.214;2023-09-19T08:06:30;99744.53;;;13.81;100.00
66381;BME280;53177;52.648;1.214;2023-09-19T08:08:56;99732.47;;;13.91;100.00
66381;BME280;53177;52.648;1.214;2023-09-19T08:11:22;99743.41;;;14.02;100.00
66381;BME280;53177;52.648;1.214;2023-09-19T08:13:49;99718.38;;;14.06;100.00
66381;BME280;53177;52.648;1.214;2023-09-19T08:16:16;99705.72;;;14.11;100.00
66381;BME280;53177;52.648;1.214;2023-09-19T08:18:43;99723.88;;;14.19;100.00
66381;BME280;53177;52.648;1.214;2023-09-19T08:21:11;99711.16;;;14.26;100.00
66381;BME280;53177;52.648;1.214;2023-09-19T08:23:37;99713.88;;;14.24;100.00
66381;BME280;53177;52.648;1.214;2023-09-19T08:26:03;99710.03;;;14.30;100.00
66381;BME280;53177;52.648;1.214;2023-09-19T08:28:32;99714.22;;;14.34;100.00
66381;BME280;53177;52.648;1.214;2023-09-19T08:31:04;99700.66;;;14.40;100.00
66381;BME280;53177;52.648;1.214;2023-09-19T08:33:32;99691.47;;;14.45;100.00
66381;BME280;53177;52.648;1.214;2023-09-19T08:35:59;99688.47;;;14.51;100.00
66381;BME280;53177;52.648;1.214;2023-09-19T08:38:24;99690.09;;;14.54;100.00
66381;BME280;53177;52.648;1.214;2023-09-19T08:40:57;99688.13;;;14.57;100.00
66381;BME280;53177;52.648;1.214;2023-09-19T08:43:22;99706.50;;;14.62;100.00
66381;BME280;53177;52.648;1.214;2023-09-19T08:45:49;99681.34;;;14.68;100.00
66381;BME280;53177;52.648;1.214;2023-09-19T08:48:23;99685.22;;;14.78;100.00
66381;BME280;53177;52.648;1.214;2023-09-19T08:55:56;99661.41;;;15.06;100.00
66381;BME280;53177;52.648;1.214;2023-09-19T08:58:26;99656.75;;;15.09;100.00
66381;BME280;53177;52.648;1.214;2023-09-19T09:00:54;99655.53;;;15.15;100.00
66381;BME280;53177;52.648;1.214;2023-09-19T09:03:22;99638.41;;;15.19;100.00
66381;BME280;53177;52.648;1.214;2023-09-19T09:05:49;99631.31;;;15.34;100.00
66381;BME280;53177;52.648;1.214;2023-09-19T09:08:17;99635.69;;;15.50;98.97
66381;BME280;53177;52.648;1.214;2023-09-19T09:10:44;99634.84;;;15.64;98.07
66381;BME280;53177;52.648;1.214;2023-09-19T09:13:09;99634.13;;;15.76;97.42
66381;BME280;53177;52.648;1.214;2023-09-19T09:15:38;99631.38;;;15.78;97.15
66381;BME280;53177;52.648;1.214;2023-09-19T09:18:04;99609.94;;;15.79;97.06
66381;BME280;53177;52.648;1.214;2023-09-19T09:20:30;99608.72;;;15.85;97.49
66381;BME280;53177;52.648;1.214;2023-09-19T09:22:56;99609.06;;;15.93;97.10
66381;BME280;53177;52.648;1.214;2023-09-19T09:25:54;99612.31;;;15.98;95.45
66381;BME280;53177;52.648;1.214;2023-09-19T09:28:30;99624.31;;;16.05;95.03
66381;BME280;53177;52.648;1.214;2023-09-19T09:30:57;99611.75;;;16.07;95.77
66381;BME280;53177;52.648;1.214;2023-09-19T09:33:23;99624.78;;;16.12;95.63
66381;BME280;53177;52.648;1.214;2023-09-19T09:35:55;99619.94;;;16.18;94.34
66381;BME280;53177;52.648;1.214;2023-09-19T09:38:25;99620.13;;;16.29;93.46
66381;BME280;53177;52.648;1.214;2023-09-19T09:40:53;99622.63;;;16.45;92.86
66381;BME280;53177;52.648;1.214;2023-09-19T09:43:35;99612.13;;;16.97;91.13
66381;BME280;53177;52.648;1.214;2023-09-19T09:46:14;99607.41;;;16.88;90.23
66381;BME280;53177;52.648;1.214;2023-09-19T09:51:48;99590.81;;;16.56;89.92
66381;BME280;53177;52.648;1.214;2023-09-19T09:54:28;99597.56;;;16.62;90.23
66381;BME280;53177;52.648;1.214;2023-09-19T09:57:05;99602.94;;;16.74;90.43
66381;BME280;53177;52.648;1.214;2023-09-19T09:59:48;99611.03;;;16.87;89.23
66381;BME280;53177;52.648;1.214;2023-09-19T10:02:19;99600.53;;;17.11;88.58
66381;BME280;53177;52.648;1.214;2023-09-19T10:04:54;99628.53;;;17.18;87.72
66381;BME280;53177;52.648;1.214;2023-09-19T10:07:29;99620.09;;;17.24;87.47
66381;BME280;53177;52.648;1.214;2023-09-19T10:09:58;99607.69;;;17.10;87.76
66381;BME280;53177;52.648;1.214;2023-09-19T10:12:31;99606.97;;;17.21;88.43
66381;BME280;53177;52.648;1.214;2023-09-19T10:14:59;99609.19;;;17.27;87.69
66381;BME280;53177;52.648;1.214;2023-09-19T10:17:26;99606.78;;;17.36;88.31
66381;BME280;53177;52.648;1.214;2023-09-19T10:19:56;99612.81;;;17.26;86.96
66381;BME280;53177;52.648;1.214;2023-09-19T10:22:26;99608.22;;;17.15;88.89
66381;BME280;53177;52.648;1.214;2023-09-19T10:24:53;99600.72;;;17.08;88.85
66381;BME280;53177;52.648;1.214;2023-09-19T10:27:22;99607.53;;;16.99;89.07
66381;BME280;53177;52.648;1.214;2023-09-19T10:29:52;99596.66;;;17.02;89.46
66381;BME280;53177;52.648;1.214;2023-09-19T10:32:22;99593.78;;;17.05;89.47
66381;BME280;53177;52.648;1.214;2023-09-19T10:34:49;99605.88;;;17.11;89.39
66381;BME280;53177;52.648;1.214;2023-09-19T10:37:16;99588.13;;;17.10;89.56
66381;BME280;53177;52.648;1.214;2023-09-19T10:39:52;99589.63;;;17.14;89.34
66381;BME280;53177;52.648;1.214;2023-09-19T10:42:20;99580.63;;;17.15;89.23
66381;BME280;53177;52.648;1.214;2023-09-19T10:44:46;99590.38;;;17.16;89.54
66381;BME280;53177;52.648;1.214;2023-09-19T10:47:19;99587.59;;;17.17;89.86
66381;BME280;53177;52.648;1.214;2023-09-19T10:49:45;99588.66;;;17.15;90.27
66381;BME280;53177;52.648;1.214;2023-09-19T10:52:15;99604.38;;;17.19;90.96
66381;BME280;53177;52.648;1.214;2023-09-19T10:54:48;99590.81;;;17.22;91.16
66381;BME280;53177;52.648;1.214;2023-09-19T10:57:24;99587.19;;;17.23;90.56
66381;BME280;53177;52.648;1.214;2023-09-19T11:00:09;99584.28;;;17.26;89.37
66381;BME280;53177;52.648;1.214;2023-09-19T11:05:37;99595.00;;;17.39;89.43
66381;BME280;53177;52.648;1.214;2023-09-19T11:08:06;99577.59;;;17.46;88.76
66381;BME280;53177;52.648;1.214;2023-09-19T11:10:48;99580.41;;;17.57;88.57
66381;BME280;53177;52.648;1.214;2023-09-19T11:27:09;99582.41;;;17.53;89.25
66381;BME280;53177;52.648;1.214;2023-09-19T11:29:35;99584.44;;;17.50;88.86
66381;BME280;53177;52.648;1.214;2023-09-19T11:32:01;99584.53;;;17.48;89.74
66381;BME280;53177;52.648;1.214;2023-09-19T11:37:01;99582.94;;;17.46;90.41
66381;BME280;53177;52.648;1.214;2023-09-19T11:39:30;99593.72;;;17.44;90.47
66381;BME280;53177;52.648;1.214;2023-09-19T11:41:55;99590.09;;;17.45;90.60
66381;BME280;53177;52.648;1.214;2023-09-19T11:44:31;99596.22;;;17.47;90.94
66381;BME280;53177;52.648;1.214;2023-09-19T11:46:56;99595.22;;;17.48;91.12
66381;BME280;53177;52.648;1.214;2023-09-19T11:49:31;99584.75;;;17.45;91.60
66381;BME280;53177;52.648;1.214;2023-09-19T11:51:59;99593.94;;;17.41;91.10
66381;BME280;53177;52.648;1.214;2023-09-19T11:54:33;99601.56;;;17.47;91.32
66381;BME280;53177;52.648;1.214;2023-09-19T11:57:02;99589.88;;;17.48;91.50
66381;BME280;53177;52.648;1.214;2023-09-19T11:59:29;99610.53;;;17.46;92.09
66381;BME280;53177;52.648;1.214;2023-09-19T12:02:01;99598.66;;;17.50;91.36
66381;BME280;53177;52.648;1.214;2023-09-19T12:07:14;99593.97;;;17.54;91.86
66381;BME280;53177;52.648;1.214;2023-09-19T12:10:05;99579.84;;;17.52;91.93
66381;BME280;53177;52.648;1.214;2023-09-19T12:12:34;99588.13;;;17.62;91.75
66381;BME280;53177;52.648;1.214;2023-09-19T12:14:59;99588.84;;;17.64;91.98
66381;BME280;53177;52.648;1.214;2023-09-19T12:17:38;99587.03;;;17.64;93.31
66381;BME280;53177;52.648;1.214;2023-09-19T12:20:05;99590.25;;;17.57;93.32
66381;BME280;53177;52.648;1.214;2023-09-19T12:22:43;99593.97;;;17.54;93.44
66381;BME280;53177;52.648;1.214;2023-09-19T12:25:12;99585.13;;;17.66;92.53
66381;BME280;53177;52.648;1.214;2023-09-19T12:27:48;99587.13;;;17.63;92.22
66381;BME280;53177;52.648;1.214;2023-09-19T12:30:19;99589.63;;;17.66;92.41
66381;BME280;53177;52.648;1.214;2023-09-19T12:32:47;99589.63;;;17.66;91.83
66381;BME280;53177;52.648;1.214;2023-09-19T12:35:33;99588.31;;;17.71;91.25
66381;BME280;53177;52.648;1.214;2023-09-19T12:38:02;99580.22;;;17.73;92.02
66381;BME280;53177;52.648;1.214;2023-09-19T12:40:28;99591.75;;;17.73;91.83
66381;BME280;53177;52.648;1.214;2023-09-19T12:42:59;99588.63;;;17.67;93.66
66381;BME280;53177;52.648;1.214;2023-09-19T12:45:27;99592.16;;;17.67;92.94
66381;BME280;53177;52.648;1.214;2023-09-19T12:51:12;99595.38;;;17.60;95.03
66381;BME280;53177;52.648;1.214;2023-09-19T12:53:43;99584.31;;;17.51;98.81
66381;BME280;53177;52.648;1.214;2023-09-19T12:56:10;99593.09;;;17.41;98.11
66381;BME280;53177;52.648;1.214;2023-09-19T12:58:56;99577.16;;;17.39;98.16
66381;BME280;53177;52.648;1.214;2023-09-19T13:01:24;99587.22;;;17.36;98.99
66381;BME280;53177;52.648;1.214;2023-09-19T13:06:43;99584.22;;;17.40;98.90
66381;BME280;53177;52.648;1.214;2023-09-19T13:09:10;99591.06;;;17.44;98.84
66381;BME280;53177;52.648;1.214;2023-09-19T13:11:37;99589.88;;;17.48;99.06
66381;BME280;53177;52.648;1.214;2023-09-19T13:14:26;99592.47;;;17.50;99.36
66381;BME280;53177;52.648;1.214;2023-09-19T13:17:08;99585.81;;;17.56;98.24
66381;BME280;53177;52.648;1.214;2023-09-19T13:19:41;99580.19;;;17.60;98.06
66381;BME280;53177;52.648;1.214;2023-09-19T13:22:44;99586.94;;;17.66;97.94
66381;BME280;53177;52.648;1.214;2023-09-19T13:25:21;99581.47;;;17.67;98.41
66381;BME280;53177;52.648;1.214;2023-09-19T13:27:48;99576.91;;;17.69;97.82
66381;BME280;53177;52.648;1.214;2023-09-19T13:30:19;99584.69;;;17.72;97.63
66381;BME280;53177;52.648;1.214;2023-09-19T13:32:45;99569.28;;;17.76;97.19
66381;BME280;53177;52.648;1.214;2023-09-19T13:35:13;99579.66;;;17.80;96.72
66381;BME280;53177;52.648;1.214;2023-09-19T13:37:39;99567.56;;;17.87;96.89
66381;BME280;53177;52.648;1.214;2023-09-19T13:42:34;99569.16;;;17.90;95.88
66381;BME280;53177;52.648;1.214;2023-09-19T13:45:01;99564.78;;;17.89;95.45
66381;BME280;53177;52.648;1.214;2023-09-19T13:47:27;99580.50;;;17.93;96.10
66381;BME280;53177;52.648;1.214;2023-09-19T13:49:52;99578.28;;;17.87;96.59
66381;BME280;53177;52.648;1.214;2023-09-19T13:52:20;99568.22;;;17.91;96.00
66381;BME280;53177;52.648;1.214;2023-09-19T13:54:48;99583.41;;;17.90;96.32
66381;BME280;53177;52.648;1.214;2023-09-19T13:57:13;99564.66;;;17.90;96.96
66381;BME280;53177;52.648;1.214;2023-09-19T13:59:39;99573.88;;;17.86;98.02
66381;BME280;53177;52.648;1.214;2023-09-19T14:02:04;99560.59;;;17.85;97.80
66381;BME280;53177;52.648;1.214;2023-09-19T14:04:31;99564.47;;;17.81;98.45